Mittler-Egg, Switzerland

7:03 PM CEST on June 21, 2018 (GMT +0200)
Eggstrasse, Steinmaur / ZH | | Change Station

Elev 1673 ft 47.50 °N, 8.43 °E | Updated 15 seconds ago

Mostly Cloudy
Mostly Cloudy
77 °F
Feels Like 79 °F
N
0
Wind Variable Wind from West
Gusts 0.0 mph

Today
High -- | Low -- °F
--% Chance of Precip.
Yesterday
High -- | Low -- °F
Precip. -- in
Pressure 30.04 in
Visibility 6.2 miles
Clouds Few 5500 ft
Scattered Clouds 6500 ft
Heat Index 79 °F
Dew Point 58 °F
Humidity 51%
Rainfall 0.00 in
Snow Depth Not available.
5:28 AM 9:27 PM
Waxing Gibbous, 63% visible
METAR LSZH 211650Z 29010KT 9999 FEW055 SCT065 25/13 Q1017 NOSIG
Pressure 30.04 in
Visibility 6.2 miles
Clouds Few 5500 ft
Scattered Clouds 6500 ft
Heat Index 79 °F
Dew Point 58 °F
Humidity 51%
Rainfall 0.00 in
Snow Depth Not available.
5:28 AM 9:27 PM
Waxing Gibbous, 63% visible
METAR LSZH 211650Z 29010KT 9999 FEW055 SCT065 25/13 Q1017 NOSIG

Get Severe Weather Alerts

Thanks for signing up!

Be on the lookout for a verification email in your inbox.

You'll start receiving the daily forecast at 6 AM.

×

10-Day Weather Forecast

×

Almanac

Astronomy

Jun. 21, 2018 Rise Set
Actual Time
Civil Twilight
Nautical Twilight
Astronomical Twilight
Moon
Length of Visible Light
Length of Day
Tomorrow will be .
, % of the Moon is Illuminated

Today's Extremes

Country Highs Country Lows

Community

WunderPhotos

Category 6

Welcome to Category 6. This is the collective home for Weather Underground's featured writeups by Dr. Jeff Masters (right), Bob Henson (left), Chris Burt, and other regular contributors.

Nearby

Air Quality

  Air Quality AQ Index Pollutant
Not available.

Snow Depth

Station Depth Elevation

Earthquake Activity

City Distance Mag. Time & Date
Minimum magnitude displayed is 2.5.

Coastal Water Temperatures

Place Temperature

Stations

Nearby Weather Stations

Station Location Temp. Windchill Dew Point Humidity Wind Precip. Elev Updated Type